Time;durP1;ratioP1;P1;durP2;ratioP2;P2;SDS_P1;SDS_P2;PMS_P1;PMS_P2;Temp;Humidity;BMP_temperature;BMP_pressure;BME280_temperature;BME280_humidity;BME280_pressure;Samples;Min_cycle;Max_cycle;Signal;HPM_P1;HPM_P2
2023/07/21 00:01:47;;;;;;;10.25;8.40;;;;;;;12.67;100.00;101232.84;5043010;28;20024;-72
2023/07/21 00:04:13;;;;;;;9.45;8.57;;;;;;;12.73;100.00;101235.31;5035825;28;20024;-72
2023/07/21 00:06:38;;;;;;;10.52;8.23;;;;;;;12.67;100.00;101230.22;5043138;28;20052;-72
2023/07/21 00:09:06;;;;;;;10.98;9.00;;;;;;;12.59;100.00;101233.06;5043516;28;20400;-72
2023/07/21 00:11:31;;;;;;;11.07;8.32;;;;;;;12.54;100.00;101233.16;5041570;28;20028;-72
2023/07/21 00:13:57;;;;;;;9.25;8.27;;;;;;;12.52;100.00;101236.69;5043775;28;20029;-72
2023/07/21 00:16:22;;;;;;;9.45;8.55;;;;;;;12.44;100.00;101217.75;5046380;28;20033;-72
2023/07/21 00:18:48;;;;;;;10.30;8.75;;;;;;;12.51;100.00;101227.16;5046199;28;20523;-72
2023/07/21 00:21:14;;;;;;;9.77;8.40;;;;;;;12.50;100.00;101225.44;5039526;28;20018;-72
2023/07/21 00:23:39;;;;;;;10.07;8.90;;;;;;;12.54;100.00;101227.06;5045671;28;20024;-72
2023/07/21 00:26:07;;;;;;;11.82;9.10;;;;;;;12.50;100.00;101225.44;5046814;28;20549;-72
2023/07/21 00:28:32;;;;;;;12.10;9.40;;;;;;;12.42;100.00;101220.38;5046382;28;20021;-72
2023/07/21 00:30:57;;;;;;;10.35;9.07;;;;;;;12.31;100.00;101211.97;5046175;28;20029;-72
2023/07/21 00:33:25;;;;;;;10.77;8.57;;;;;;;12.32;100.00;101211.91;5047229;28;20431;-73
2023/07/21 00:35:50;;;;;;;10.35;9.35;;;;;;;12.31;100.00;101220.66;5045621;28;20040;-73
2023/07/21 00:38:16;;;;;;;12.98;9.82;;;;;;;12.33;100.00;101205.81;5040102;28;20025;-73
2023/07/21 00:40:41;;;;;;;11.52;10.25;;;;;;;12.44;100.00;101204.66;5043251;28;20069;-73
2023/07/21 00:43:09;;;;;;;13.35;9.80;;;;;;;12.51;100.00;101203.59;5042056;28;20029;-73
2023/07/21 00:45:39;;;;;;;12.50;10.23;;;;;;;12.54;100.00;101206.16;5043976;28;20060;-72
2023/07/21 00:48:07;;;;;;;11.07;9.75;;;;;;;12.47;100.00;101208.06;5046071;28;20034;-72
2023/07/21 00:50:41;;;;;;;10.15;9.25;;;;;;;12.35;100.00;101198.75;5046158;28;20045;-72
2023/07/21 00:53:07;;;;;;;11.48;10.35;;;;;;;12.35;100.00;101211.84;5044971;28;20125;-73
2023/07/21 00:55:32;;;;;;;11.77;10.57;;;;;;;12.31;100.00;101210.19;5044714;28;20554;-72
2023/07/21 00:57:58;;;;;;;11.55;10.45;;;;;;;12.27;100.00;101205.94;5043742;28;20056;-72
2023/07/21 01:00:24;;;;;;;11.65;10.45;;;;;;;12.26;100.00;101198.13;5047772;28;20108;-73
2023/07/21 01:02:49;;;;;;;12.52;9.88;;;;;;;12.23;100.00;101204.31;5042862;28;20057;-73
2023/07/21 01:05:17;;;;;;;12.02;10.80;;;;;;;12.19;100.00;101186.97;5049248;28;20048;-73
2023/07/21 01:07:43;;;;;;;11.02;9.93;;;;;;;12.18;100.00;101185.25;5041513;28;20529;-72
2023/07/21 01:10:10;;;;;;;11.63;10.43;;;;;;;12.17;100.00;101189.63;5042725;28;20081;-73
2023/07/21 01:12:36;;;;;;;11.82;10.63;;;;;;;12.17;100.00;101188.78;5045782;28;20052;-73
2023/07/21 01:15:02;;;;;;;11.57;10.38;;;;;;;12.21;100.00;101182.56;5043188;28;20545;-72
2023/07/21 01:17:29;;;;;;;11.07;9.98;;;;;;;12.23;100.00;101178.19;5050439;28;20061;-72
2023/07/21 01:19:57;;;;;;;11.68;10.48;;;;;;;12.18;100.00;101178.28;5042635;28;20021;-72
2023/07/21 01:22:25;;;;;;;11.65;10.45;;;;;;;12.17;100.00;101178.31;5050499;28;20075;-73
2023/07/21 01:24:51;;;;;;;11.93;10.48;;;;;;;12.10;100.00;101177.63;5035391;28;20025;-72
2023/07/21 01:27:22;;;;;;;12.43;11.10;;;;;;;12.08;100.00;101173.31;5042640;28;20038;-72
2023/07/21 01:29:49;;;;;;;12.15;10.95;;;;;;;12.01;100.00;101182.19;5044559;28;20033;-73
2023/07/21 01:32:18;;;;;;;12.93;11.63;;;;;;;11.94;100.00;101168.44;5044513;28;20045;-73
2023/07/21 01:34:45;;;;;;;14.48;11.98;;;;;;;11.98;100.00;101179.66;5043310;28;20033;-72
2023/07/21 01:37:12;;;;;;;14.23;11.95;;;;;;;11.91;100.00;101164.13;5047280;28;20053;-72
2023/07/21 01:39:39;;;;;;;11.93;10.80;;;;;;;11.92;100.00;101172.81;5042086;28;20025;-73
2023/07/21 01:42:05;;;;;;;12.93;11.35;;;;;;;11.87;100.00;101172.06;5048658;28;20029;-73
2023/07/21 01:44:31;;;;;;;13.65;11.32;;;;;;;11.76;100.00;101160.97;5041995;28;20124;-73
2023/07/21 01:46:56;;;;;;;13.02;11.73;;;;;;;11.72;100.00;101154.97;5045233;28;20388;-72
2023/07/21 01:49:21;;;;;;;12.40;11.10;;;;;;;11.66;100.00;101155.09;5037252;28;20488;-73
2023/07/21 01:51:49;;;;;;;13.32;12.02;;;;;;;11.77;100.00;101157.47;5036174;28;20025;-73
2023/07/21 01:54:26;;;;;;;12.30;11.20;;;;;;;11.80;100.00;101155.63;5038819;28;20059;-72
2023/07/21 01:56:57;;;;;;;14.80;11.50;;;;;;;11.81;100.00;101159.13;5044284;28;20525;-72
2023/07/21 01:59:24;;;;;;;13.07;11.65;;;;;;;11.73;100.00;101156.69;5039667;28;20022;-73
2023/07/21 02:01:53;;;;;;;12.77;11.35;;;;;;;11.77;100.00;101157.47;5041885;28;20487;-72
2023/07/21 02:04:19;;;;;;;13.77;10.90;;;;;;;11.72;100.00;101149.75;5042883;28;20037;-72
2023/07/21 02:06:44;;;;;;;11.70;10.50;;;;;;;11.68;100.00;101142.88;5041513;28;20034;-72
2023/07/21 02:09:09;;;;;;;13.10;11.80;;;;;;;11.66;100.00;101147.28;5048083;28;20528;-72
2023/07/21 02:11:35;;;;;;;12.93;11.63;;;;;;;11.62;100.00;101153.47;5047477;28;20111;-72
2023/07/21 02:14:00;;;;;;;13.35;11.95;;;;;;;11.58;100.00;101151.81;5051794;28;20028;-72
2023/07/21 02:16:26;;;;;;;12.77;11.30;;;;;;;11.54;100.00;101145.78;5042778;28;20067;-72
2023/07/21 02:18:53;;;;;;;13.88;11.73;;;;;;;11.48;100.00;101143.34;5051506;28;20051;-72
2023/07/21 02:21:18;;;;;;;12.73;11.10;;;;;;;11.45;100.00;101146.03;5044615;28;20056;-72
2023/07/21 02:23:43;;;;;;;13.05;11.43;;;;;;;11.37;100.00;101129.66;5042039;28;20484;-73
2023/07/21 02:26:08;;;;;;;13.98;11.55;;;;;;;11.39;100.00;101135.72;5044806;28;20033;-72
2023/07/21 02:28:34;;;;;;;13.48;11.95;;;;;;;11.42;100.00;101153.91;5043059;28;20093;-72
2023/07/21 02:31:02;;;;;;;12.55;11.27;;;;;;;11.34;100.00;101145.38;5044020;28;20366;-72
2023/07/21 02:33:29;;;;;;;12.88;11.57;;;;;;;11.36;100.00;101149.69;5044024;28;20094;-73
2023/07/21 02:35:55;;;;;;;13.70;11.63;;;;;;;11.33;100.00;101134.09;5044158;28;20040;-72
2023/07/21 02:38:20;;;;;;;12.75;11.50;;;;;;;11.29;100.00;101129.81;5040752;28;20021;-72
2023/07/21 02:40:46;;;;;;;12.13;10.93;;;;;;;11.29;100.00;101142.03;5044049;28;20034;-73
2023/07/21 02:43:12;;;;;;;15.38;11.07;;;;;;;11.20;100.00;101146.53;5044156;28;20393;-73
2023/07/21 02:45:38;;;;;;;12.23;10.93;;;;;;;11.17;100.00;101141.38;5037405;28;20033;-72
2023/07/21 02:48:06;;;;;;;15.05;11.07;;;;;;;11.16;100.00;101137.06;5043733;28;20164;-72
2023/07/21 02:50:33;;;;;;;12.02;10.82;;;;;;;11.18;100.00;101137.91;5042079;28;20033;-72
2023/07/21 02:52:58;;;;;;;17.50;11.93;;;;;;;11.23;100.00;101135.19;5040342;28;20108;-72
2023/07/21 02:55:24;;;;;;;12.02;10.70;;;;;;;11.28;100.00;101135.06;5039158;28;20480;-72
2023/07/21 02:57:49;;;;;;;14.77;10.90;;;;;;;11.25;100.00;101118.59;5042610;28;20036;-73
2023/07/21 03:00:14;;;;;;;15.75;11.40;;;;;;;11.21;100.00;101127.38;5036897;28;20056;-72
2023/07/21 03:02:41;;;;;;;20.75;10.90;;;;;;;11.23;100.00;101132.56;5044072;28;20481;-73
2023/07/21 03:05:07;;;;;;;17.80;11.82;;;;;;;11.20;100.00;101132.63;5041307;28;20022;-73
2023/07/21 03:07:33;;;;;;;17.17;11.43;;;;;;;11.14;100.00;101132.75;5045231;28;20025;-72
2023/07/21 03:09:58;;;;;;;16.83;11.27;;;;;;;11.10;100.00;101128.50;5041017;28;20441;-72
2023/07/21 03:12:24;;;;;;;16.67;11.88;;;;;;;10.94;100.00;101107.94;5040957;28;20040;-72
2023/07/21 03:14:49;;;;;;;18.88;11.23;;;;;;;11.08;100.00;101138.97;5039904;28;20036;-72
2023/07/21 03:17:14;;;;;;;17.90;11.73;;;;;;;11.02;100.00;101134.75;5047221;28;20107;-73
2023/07/21 03:19:40;;;;;;;15.70;11.10;;;;;;;10.86;100.00;101116.84;5039352;28;20104;-72
2023/07/21 03:22:05;;;;;;;13.77;11.60;;;;;;;10.89;100.00;101135.88;5045809;28;20033;-72
2023/07/21 03:24:32;;;;;;;19.42;11.35;;;;;;;10.74;100.00;101115.31;5041631;28;20035;-72
2023/07/21 03:26:58;;;;;;;14.73;11.85;;;;;;;10.82;100.00;101133.41;5043391;28;20036;-72
2023/07/21 03:29:23;;;;;;;15.98;11.68;;;;;;;10.73;100.00;101134.47;5040055;28;20026;-72
2023/07/21 03:31:48;;;;;;;12.57;11.27;;;;;;;10.76;100.00;101137.88;5043082;28;20033;-72
2023/07/21 03:34:14;;;;;;;14.45;11.73;;;;;;;10.74;100.00;101144.00;5038174;28;20029;-73
2023/07/21 03:36:39;;;;;;;15.32;12.43;;;;;;;10.69;100.00;101132.78;5031065;28;20041;-73
2023/07/21 03:39:05;;;;;;;18.25;13.18;;;;;;;10.72;100.00;101130.97;5032231;28;20097;-73
2023/07/21 03:41:30;;;;;;;19.00;12.13;;;;;;;10.81;100.00;101132.56;5044681;28;20464;-72
2023/07/21 03:43:55;;;;;;;18.17;12.80;;;;;;;10.78;100.00;101132.63;5041184;28;20437;-73
2023/07/21 03:46:22;;;;;;;16.67;12.57;;;;;;;10.80;100.00;101133.47;5038780;28;20484;-73
2023/07/21 03:48:48;;;;;;;15.20;12.45;;;;;;;10.71;100.00;101126.66;5039404;28;20029;-73
2023/07/21 03:51:13;;;;;;;17.17;12.73;;;;;;;10.77;100.00;101129.16;5045009;28;20021;-73
2023/07/21 03:53:39;;;;;;;17.30;12.82;;;;;;;10.82;100.00;101129.06;5045459;28;20108;-72
2023/07/21 03:56:05;;;;;;;15.18;13.05;;;;;;;10.84;100.00;101123.81;5044056;28;20075;-72
2023/07/21 03:58:31;;;;;;;18.30;14.07;;;;;;;10.89;100.00;101133.28;5047279;28;20366;-73
2023/07/21 04:00:58;;;;;;;14.38;12.68;;;;;;;10.87;100.00;101132.44;5039378;28;20036;-73
2023/07/21 04:03:24;;;;;;;14.52;12.57;;;;;;;10.88;100.00;101135.91;5032037;28;20100;-73
2023/07/21 04:05:53;;;;;;;18.23;12.82;;;;;;;10.72;100.00;101102.28;5042504;28;20032;-73
2023/07/21 04:08:19;;;;;;;18.02;13.52;;;;;;;10.82;100.00;101126.44;5041355;28;20025;-72
2023/07/21 04:10:45;;;;;;;15.93;12.18;;;;;;;10.89;100.00;101130.66;5041267;28;20070;-72
2023/07/21 04:13:10;;;;;;;14.85;12.27;;;;;;;10.85;100.00;101120.31;5045248;28;20025;-72
2023/07/21 04:15:36;;;;;;;16.27;12.25;;;;;;;10.82;100.00;101116.00;5046029;28;20039;-73
2023/07/21 04:18:02;;;;;;;19.40;13.05;;;;;;;10.80;100.00;101120.41;5045604;28;20091;-72
2023/07/21 04:20:31;;;;;;;17.45;12.70;;;;;;;10.77;100.00;101110.91;5041665;28;20484;-72
2023/07/21 04:22:56;;;;;;;20.38;15.07;;;;;;;10.83;100.00;101107.31;5047310;28;20021;-72
2023/07/21 04:25:22;;;;;;;16.60;14.63;;;;;;;10.92;100.00;101103.63;5043070;28;20044;-72
2023/07/21 04:27:50;;;;;;;18.95;14.85;;;;;;;10.94;100.00;101101.88;5046659;28;20060;-73
2023/07/21 04:30:16;;;;;;;18.65;15.18;;;;;;;10.95;100.00;101103.56;5043197;28;20140;-72
2023/07/21 04:32:41;;;;;;;17.60;15.25;;;;;;;10.96;100.00;101108.78;5040319;28;20489;-72
2023/07/21 04:35:10;;;;;;;19.45;15.20;;;;;;;10.89;100.00;101086.31;5041432;28;20068;-72
2023/07/21 04:37:36;;;;;;;17.50;15.48;;;;;;;11.00;100.00;101096.53;5039480;28;20030;-72
2023/07/21 04:40:02;;;;;;;21.60;14.75;;;;;;;11.09;100.00;101100.72;5043915;28;20457;-72
2023/07/21 04:42:28;;;;;;;19.77;15.45;;;;;;;11.04;100.00;101095.56;5044787;28;20075;-72
2023/07/21 04:44:53;;;;;;;33.60;17.40;;;;;;;11.06;100.00;101085.97;5044586;28;20026;-73
2023/07/21 04:47:18;;;;;;;24.40;16.65;;;;;;;11.26;100.00;101098.56;5046694;28;20028;-72
2023/07/21 04:49:44;;;;;;;22.52;18.17;;;;;;;11.39;100.00;101094.78;5035264;28;20373;-72
2023/07/21 04:52:09;;;;;;;24.92;17.42;;;;;;;11.49;100.00;101105.88;5048768;28;20025;-72
2023/07/21 04:54:36;;;;;;;20.13;17.98;;;;;;;11.61;100.00;101104.75;5037056;28;20021;-72
2023/07/21 04:57:01;;;;;;;21.45;18.48;;;;;;;11.71;100.00;101098.41;5049338;28;20035;-72
2023/07/21 04:59:26;;;;;;;21.55;17.80;;;;;;;11.79;100.00;101083.41;5039888;28;20025;-73
2023/07/21 05:01:52;;;;;;;19.55;17.52;;;;;;;11.91;100.00;101082.28;5048244;28;20021;-72
2023/07/21 05:04:19;;;;;;;22.23;17.95;;;;;;;12.05;100.00;101089.78;5043776;28;20040;-72
2023/07/21 05:06:46;;;;;;;20.45;18.30;;;;;;;12.12;100.00;101092.16;5046451;28;20037;-72
2023/07/21 05:09:13;;;;;;;19.25;17.20;;;;;;;12.19;100.00;101082.41;5045268;28;20435;-72
2023/07/21 05:11:38;;;;;;;20.52;17.85;;;;;;;12.32;100.00;101086.41;5040159;28;20155;-72
2023/07/21 05:14:03;;;;;;;21.50;18.80;;;;;;;12.39;100.00;101090.59;5045325;28;20104;-72
2023/07/21 05:16:29;;;;;;;19.90;17.80;;;;;;;12.47;100.00;101092.16;5044143;28;20075;-72
2023/07/21 05:18:55;;;;;;;21.60;19.10;;;;;;;12.56;100.00;101078.84;5045994;28;20025;-72
2023/07/21 05:21:20;;;;;;;21.83;19.52;;;;;;;12.67;100.00;101081.13;5043681;28;20461;-72
2023/07/21 05:23:45;;;;;;;21.85;17.88;;;;;;;12.75;100.00;101081.75;5045877;28;20491;-72
2023/07/21 05:26:11;;;;;;;22.02;18.85;;;;;;;12.87;100.00;101087.50;5044909;28;20033;-72
2023/07/21 05:28:37;;;;;;;21.98;19.67;;;;;;;13.02;100.00;101090.59;5044032;28;20033;-72
2023/07/21 05:31:03;;;;;;;20.83;18.63;;;;;;;13.17;100.00;101090.09;5046026;28;20025;-72
2023/07/21 05:33:29;;;;;;;21.48;19.00;;;;;;;13.34;100.00;101092.25;5045940;28;20877;-72
2023/07/21 05:36:04;;;;;;;22.05;19.75;;;;;;;13.45;100.00;101086.69;5035292;28;20029;-73
2023/07/21 05:38:29;;;;;;;21.92;18.35;;;;;;;13.63;100.00;101093.94;5045094;28;20052;-72
2023/07/21 05:40:57;;;;;;;21.50;19.30;;;;;;;13.73;100.00;101092.75;5042220;28;21415;-73
2023/07/21 05:43:23;;;;;;;19.67;17.65;;;;;;;13.83;100.00;101093.28;5043752;28;20147;-73
2023/07/21 05:45:49;;;;;;;19.35;17.25;;;;;;;13.93;100.00;101091.22;5041116;28;20116;-73
2023/07/21 05:48:15;;;;;;;19.20;17.17;;;;;;;13.99;100.00;101085.78;5044588;28;20033;-72
2023/07/21 05:50:40;;;;;;;19.17;17.27;;;;;;;14.08;100.00;101095.09;5043538;28;20100;-72
2023/07/21 05:53:05;;;;;;;19.52;17.25;;;;;;;14.11;100.00;101089.75;5044437;28;20466;-73
2023/07/21 05:55:30;;;;;;;18.73;16.75;;;;;;;14.05;100.00;101080.34;5044408;28;20089;-73
2023/07/21 05:57:56;;;;;;;18.75;16.67;;;;;;;14.18;100.00;101088.63;5043098;28;20109;-72
2023/07/21 06:00:21;;;;;;;21.90;17.13;;;;;;;14.32;100.00;101101.25;5043540;28;20025;-73
2023/07/21 06:02:46;;;;;;;17.85;15.98;;;;;;;14.37;100.00;101096.72;5041090;28;20021;-72
2023/07/21 06:05:12;;;;;;;17.85;16.05;;;;;;;14.38;100.00;101099.28;5043820;28;20072;-73
2023/07/21 06:07:42;;;;;;;18.90;15.57;;;;;;;14.43;100.00;101104.38;5046225;28;20032;-73
2023/07/21 06:10:08;;;;;;;16.38;14.55;;;;;;;14.49;100.00;101096.31;5041492;28;20049;-72
2023/07/21 06:12:33;;;;;;;19.75;16.83;;;;;;;14.54;100.00;101090.91;5047130;28;20107;-72
2023/07/21 06:14:59;;;;;;;18.40;16.40;;;;;;;14.68;100.00;101097.38;5041521;28;20036;-72
2023/07/21 06:17:25;;;;;;;18.08;16.27;;;;;;;14.79;100.00;101093.50;5047476;28;20037;-72
2023/07/21 06:19:51;;;;;;;18.58;16.63;;;;;;;14.86;100.00;101100.25;5041621;28;20029;-72
2023/07/21 06:22:16;;;;;;;18.38;16.52;;;;;;;14.84;100.00;101086.31;5048093;28;20096;-72
2023/07/21 06:24:43;;;;;;;20.02;17.77;;;;;;;14.96;100.00;101088.47;5045058;28;20462;-72
2023/07/21 06:27:09;;;;;;;18.65;16.25;;;;;;;15.11;100.00;101089.69;5037628;28;20036;-72
2023/07/21 06:29:34;;;;;;;20.95;17.45;;;;;;;15.16;100.00;101093.81;5043266;28;20031;-72
2023/07/21 06:32:00;;;;;;;22.25;18.02;;;;;;;15.20;100.00;101091.94;5042032;28;20040;-72
2023/07/21 06:34:25;;;;;;;20.38;17.77;;;;;;;15.27;100.00;101088.16;5040525;28;20500;-72
2023/07/21 06:36:51;;;;;;;19.40;16.80;;;;;;;15.35;100.00;101082.59;5046414;28;20020;-72
2023/07/21 06:39:16;;;;;;;18.95;16.90;;;;;;;15.51;100.00;101085.50;5036126;28;20037;-72
2023/07/21 06:41:44;;;;;;;18.95;16.42;;;;;;;15.62;100.00;101086.75;5045707;28;20064;-72
2023/07/21 06:44:09;;;;;;;20.13;17.02;;;;;;;15.71;100.00;101082.06;5040208;28;20033;-72
2023/07/21 06:46:35;;;;;;;18.67;16.23;;;;;;;15.77;100.00;101077.44;5037108;28;20115;-72
2023/07/21 06:49:00;;;;;;;18.80;16.73;;;;;;;15.85;100.00;101082.34;5040410;28;20025;-72
2023/07/21 06:51:25;;;;;;;18.27;16.00;;;;;;;15.98;100.00;101088.81;5041080;28;20029;-74
2023/07/21 06:53:51;;;;;;;18.67;16.25;;;;;;;16.13;100.00;101090.81;5039391;28;20481;-74
2023/07/21 06:56:16;;;;;;;19.10;16.23;;;;;;;16.24;100.00;101086.84;5042253;28;20086;-74
2023/07/21 06:58:43;;;;;;;17.35;15.05;;;;;;;16.36;100.00;101075.81;5037288;28;20054;-74
2023/07/21 07:01:09;;;;;;;17.45;15.50;;;;;;;16.56;100.00;101077.56;5039435;28;20044;-74
2023/07/21 07:03:34;;;;;;;16.85;15.07;;;;;;;16.67;100.00;101083.19;5039079;28;20021;-74
2023/07/21 07:06:00;;;;;;;19.95;16.38;;;;;;;16.81;100.00;101085.25;5040580;28;20484;-74
2023/07/21 07:08:25;;;;;;;20.55;16.65;;;;;;;16.88;100.00;101081.41;5042762;28;20033;-74
2023/07/21 07:10:51;;;;;;;17.80;15.50;;;;;;;16.85;100.00;101076.28;5043980;28;20083;-74
2023/07/21 07:13:16;;;;;;;23.15;17.73;;;;;;;16.93;100.00;101078.53;5040989;28;20123;-74
2023/07/21 07:15:47;;;;;;;21.80;15.77;;;;;;;16.97;100.00;101070.44;5043588;28;20033;-74
2023/07/21 07:18:12;;;;;;;18.85;16.27;;;;;;;16.98;100.00;101072.16;5031302;28;20056;-74
2023/07/21 07:20:38;;;;;;;22.73;18.55;;;;;;;17.02;100.00;101068.44;5022986;28;20114;-74
2023/07/21 07:23:03;;;;;;;20.38;15.77;;;;;;;17.02;100.00;101067.59;5035094;28;20032;-74
2023/07/21 07:25:29;;;;;;;21.48;17.25;;;;;;;17.07;100.00;101071.72;5032779;28;20042;-74
2023/07/21 07:27:54;;;;;;;24.35;18.52;;;;;;;17.24;100.00;101067.44;5042857;28;20061;-73
2023/07/21 07:30:20;;;;;;;29.58;21.38;;;;;;;17.45;100.00;101066.38;5030451;28;20366;-74
2023/07/21 07:32:45;;;;;;;25.70;19.02;;;;;;;17.75;98.67;101068.44;5029180;28;20112;-74
2023/07/21 07:35:11;;;;;;;28.73;19.23;;;;;;;17.91;95.74;101074.69;5037907;28;20033;-73
2023/07/21 07:37:37;;;;;;;21.08;17.27;;;;;;;17.99;97.45;101061.13;5026013;28;20500;-74
2023/07/21 07:40:05;;;;;;;23.52;18.27;;;;;;;18.07;94.18;101063.38;5039288;28;20024;-74
2023/07/21 07:42:33;;;;;;;19.65;16.42;;;;;;;18.12;94.33;101078.03;5035544;28;20025;-74
2023/07/21 07:45:00;;;;;;;18.65;15.93;;;;;;;18.21;93.68;101074.06;5042715;28;20033;-74
2023/07/21 07:47:25;;;;;;;19.30;15.93;;;;;;;18.38;90.74;101074.06;5040748;28;20021;-73
2023/07/21 07:49:51;;;;;;;18.05;13.95;;;;;;;18.63;91.12;101081.50;5040016;28;20417;-73
2023/07/21 07:52:19;;;;;;;19.15;15.43;;;;;;;18.77;90.38;101074.66;5038917;28;20045;-73
2023/07/21 07:54:44;;;;;;;19.08;14.80;;;;;;;18.99;93.04;101080.50;5041110;28;20022;-73
2023/07/21 07:57:14;;;;;;;20.35;16.02;;;;;;;19.13;86.51;101082.41;5046722;28;20091;-73
2023/07/21 07:59:40;;;;;;;19.15;15.85;;;;;;;19.30;87.93;101084.09;5039689;28;20029;-73
2023/07/21 08:02:05;;;;;;;18.17;15.25;;;;;;;19.48;86.10;101080.41;5044693;28;20076;-73
2023/07/21 08:04:31;;;;;;;15.98;13.70;;;;;;;19.61;86.18;101081.41;5049013;28;20033;-73
2023/07/21 08:06:56;;;;;;;14.90;12.00;;;;;;;19.59;80.53;101078.00;5042714;28;20044;-74
2023/07/21 08:09:22;;;;;;;14.57;12.50;;;;;;;19.50;77.96;101067.94;5036501;28;20036;-73
2023/07/21 08:11:47;;;;;;;12.40;10.35;;;;;;;19.44;83.55;101081.53;5033838;28;20025;-74
2023/07/21 08:14:12;;;;;;;13.63;11.43;;;;;;;19.47;81.91;101075.22;5035364;28;20049;-73
2023/07/21 08:16:38;;;;;;;12.73;9.82;;;;;;;19.55;83.92;101075.59;5022764;28;20021;-73
2023/07/21 08:19:04;;;;;;;18.35;12.10;;;;;;;19.69;76.86;101073.06;5033972;28;20473;-73
2023/07/21 08:21:35;;;;;;;15.00;11.60;;;;;;;19.86;75.81;101072.09;5036235;28;20025;-74
2023/07/21 08:24:00;;;;;;;12.32;11.02;;;;;;;20.04;76.09;101078.06;5030736;28;20025;-73
2023/07/21 08:26:25;;;;;;;15.73;11.80;;;;;;;20.11;77.90;101064.41;5040947;28;20043;-73
2023/07/21 08:28:52;;;;;;;13.98;11.90;;;;;;;20.23;79.54;101062.78;5043379;28;20033;-73
2023/07/21 08:31:18;;;;;;;16.30;11.30;;;;;;;20.26;77.01;101073.22;5031688;28;20433;-73
2023/07/21 08:33:44;;;;;;;15.15;12.85;;;;;;;20.20;70.78;101072.72;5030128;28;20034;-73
2023/07/21 08:36:09;;;;;;;13.45;12.05;;;;;;;20.22;73.36;101068.19;5030696;28;20083;-73
2023/07/21 08:38:34;;;;;;;16.77;12.00;;;;;;;20.11;72.88;101072.34;5040930;28;20025;-73
2023/07/21 08:41:05;;;;;;;13.02;10.50;;;;;;;20.08;77.00;101067.22;5034675;28;20689;-73
2023/07/21 08:43:31;;;;;;;11.23;9.57;;;;;;;20.17;75.06;101079.03;5040927;28;20022;-73
2023/07/21 08:46:00;;;;;;;11.15;9.23;;;;;;;20.22;75.66;101076.13;5038889;28;20389;-74
2023/07/21 08:48:27;;;;;;;13.55;9.07;;;;;;;20.25;79.05;101073.31;5022337;28;20057;-73
2023/07/21 08:50:55;;;;;;;12.18;9.40;;;;;;;20.39;73.78;101075.13;5035382;28;20030;-74
2023/07/21 08:53:22;;;;;;;16.25;13.55;;;;;;;20.43;68.06;101072.19;5046188;28;20052;-75
2023/07/21 08:55:47;;;;;;;13.63;10.82;;;;;;;20.20;73.00;101070.91;5043347;28;20025;-74
2023/07/21 08:58:14;;;;;;;13.90;10.93;;;;;;;20.03;74.09;101071.09;5041101;28;20031;-74
2023/07/21 09:00:40;;;;;;;13.35;9.02;;;;;;;19.91;75.73;101077.94;5035150;28;20034;-74
2023/07/21 09:03:05;;;;;;;12.50;8.43;;;;;;;19.73;73.36;101082.53;5042674;28;20459;-74
2023/07/21 09:05:31;;;;;;;10.52;8.20;;;;;;;19.55;75.04;101076.47;5034947;28;20033;-74
2023/07/21 09:07:56;;;;;;;11.65;8.90;;;;;;;19.34;72.65;101075.91;5036077;28;20017;-74
2023/07/21 09:10:33;;;;;;;10.85;8.68;;;;;;;19.21;76.71;101080.16;5037338;28;20030;-74
2023/07/21 09:13:02;;;;;;;10.50;9.07;;;;;;;19.03;78.61;101075.88;5043154;28;20022;-74
2023/07/21 09:15:27;;;;;;;12.75;11.45;;;;;;;18.87;80.38;101081.19;5035502;28;20045;-73
2023/07/21 09:17:53;;;;;;;16.67;13.43;;;;;;;18.74;79.47;101080.13;5039527;28;20025;-73
2023/07/21 09:20:19;;;;;;;15.00;11.50;;;;;;;18.80;80.95;101080.66;5039381;28;20495;-74
2023/07/21 09:22:48;;;;;;;16.85;14.70;;;;;;;19.17;84.67;101084.78;5044852;28;20021;-73
2023/07/21 09:25:21;;;;;;;18.40;15.60;;;;;;;19.44;81.70;101070.94;5038319;28;20045;-73
2023/07/21 09:27:55;;;;;;;19.00;15.70;;;;;;;19.49;78.27;101066.25;5037576;28;20480;-74
2023/07/21 09:30:20;;;;;;;15.80;13.73;;;;;;;19.42;81.32;101056.94;5038138;28;20461;-74
2023/07/21 09:32:46;;;;;;;17.65;14.80;;;;;;;19.90;78.69;101070.09;5043110;28;20049;-74
2023/07/21 09:35:11;;;;;;;16.63;14.60;;;;;;;20.30;74.63;101060.63;5039343;28;20080;-74
2023/07/21 09:37:41;;;;;;;17.45;15.27;;;;;;;20.83;69.86;101059.16;5033032;28;20021;-74
2023/07/21 09:40:10;;;;;;;18.17;14.18;;;;;;;21.33;66.47;101057.72;5025480;28;20109;-74
2023/07/21 09:42:37;;;;;;;15.05;11.77;;;;;;;21.84;67.79;101046.41;5036634;28;20021;-74
2023/07/21 09:45:02;;;;;;;13.18;11.38;;;;;;;22.16;61.97;101038.94;5044615;28;20056;-74
2023/07/21 09:47:28;;;;;;;12.10;10.38;;;;;;;22.17;60.43;101049.50;5038296;28;20103;-74
2023/07/21 09:49:55;;;;;;;12.05;10.55;;;;;;;22.12;58.22;101045.41;5040084;28;20055;-74
2023/07/21 09:52:22;;;;;;;13.95;10.98;;;;;;;22.12;62.22;101045.41;5037957;28;20388;-74
2023/07/21 09:54:57;;;;;;;19.83;13.25;;;;;;;22.04;60.10;101050.38;5032294;28;20029;-74
2023/07/21 09:57:23;;;;;;;14.07;12.32;;;;;;;21.89;65.95;101049.63;5043673;28;20492;-74
2023/07/21 09:59:55;;;;;;;14.82;11.68;;;;;;;21.73;63.53;101025.94;5035076;28;20022;-75
2023/07/21 10:02:22;;;;;;;13.00;10.77;;;;;;;21.69;63.64;101043.84;5030131;28;20067;-74
2023/07/21 10:04:47;;;;;;;16.90;12.68;;;;;;;21.50;60.89;101052.19;5034408;28;20025;-76
2023/07/21 10:07:13;;;;;;;13.52;11.45;;;;;;;21.09;62.15;101054.88;5042386;28;20040;-76
2023/07/21 10:09:39;;;;;;;15.18;10.98;;;;;;;20.89;60.99;101042.84;5032289;28;20063;-74
2023/07/21 10:12:14;;;;;;;13.65;11.20;;;;;;;20.72;63.82;101051.88;5027734;28;20038;-74
2023/07/21 10:14:40;;;;;;;11.60;9.77;;;;;;;20.45;67.96;101053.56;5031222;28;20079;-74
2023/07/21 10:17:07;;;;;;;16.60;12.70;;;;;;;19.97;73.21;101052.94;5029829;28;20030;-74
2023/07/21 10:19:42;;;;;;;15.95;13.35;;;;;;;19.24;83.18;101056.22;5044641;28;20071;-74
2023/07/21 10:22:22;;;;;;;17.83;13.52;;;;;;;18.41;92.79;101068.63;5024625;28;20037;-74
2023/07/21 10:24:51;;;;;;;18.80;15.20;;;;;;;17.84;98.50;101064.53;5036055;28;20037;-74
2023/07/21 10:27:23;;;;;;;17.73;15.60;;;;;;;17.43;100.00;101063.00;5031474;28;20033;-73
2023/07/21 10:30:11;;;;;;;26.93;17.67;;;;;;;17.20;100.00;101063.22;5028552;28;20119;-74
2023/07/21 10:32:41;;;;;;;23.45;19.73;;;;;;;16.94;100.00;101070.59;5029299;28;20045;-74
2023/07/21 10:35:35;;;;;;;29.17;22.58;;;;;;;16.72;100.00;101083.00;5035299;28;20029;-74
2023/07/21 10:38:15;;;;;;;31.98;23.77;;;;;;;16.46;100.00;101089.41;5028464;28;20036;-74
2023/07/21 10:40:45;;;;;;;40.38;28.58;;;;;;;16.30;100.00;101094.47;5038327;28;20501;-76
2023/07/21 10:43:11;;;;;;;46.75;33.83;;;;;;;16.13;100.00;101101.31;5037048;28;20112;-76
2023/07/21 10:45:38;;;;;;;51.88;36.95;;;;;;;16.10;100.00;101090.06;5038695;28;20029;-76
2023/07/21 10:48:13;;;;;;;38.78;29.58;;;;;;;15.92;100.00;101094.31;5025533;28;20025;-76
2023/07/21 10:50:48;;;;;;;43.70;31.40;;;;;;;15.88;100.00;101092.75;5035777;28;20103;-76
2023/07/21 10:53:14;;;;;;;40.63;33.17;;;;;;;15.83;100.00;101089.47;5030155;28;20025;-75
2023/07/21 10:55:40;;;;;;;42.95;33.50;;;;;;;15.78;100.00;101094.06;5043198;28;20021;-75
2023/07/21 10:58:05;;;;;;;41.42;32.67;;;;;;;15.65;100.00;101094.50;5037950;28;20048;-75
2023/07/21 11:00:44;;;;;;;39.55;31.50;;;;;;;15.49;100.00;101089.94;5038834;28;20037;-75
2023/07/21 11:03:10;;;;;;;38.17;29.08;;;;;;;15.45;100.00;101097.09;5041922;28;20052;-75